Flight Track Log - Related Links

Times and Time Zones

All times are in EDT time to prevent confusion due to time zone crossing. See the N6210Y flight status page for this flight to view local times or setup timezone preferences in your user account.

Time Position Orientation Groundspeed Altitude Reporting Facility
EDT Latitude Longitude Course Direction KTS MPH feet Rate Location/Type
Sat 11:15:41 AM 47.2828 -122.5769 274° West 70 81 1,000  Level Seattle Center
Sat 11:17:18 AM 47.2853 -122.6311 274° West 109 125 2,200 658 Climbing Seattle Center
Sat 11:18:07 AM 47.2853 -122.6669 270° West 110 127 2,600 545 Climbing Seattle Center
Sat 11:19:08 AM 47.2875 -122.7114 274° West 105 121 3,200 610 Climbing Seattle Center
Sat 11:20:05 AM 47.2889 -122.7539 273° West 107 123 3,800 458 Climbing Seattle Center
Sat 11:21:06 AM 47.2911 -122.8022 274° West 116 133 4,100 98 Climbing Seattle Center
Sat 11:22:07 AM 47.2933 -122.8622 273° West 144 166 4,000  Descending Seattle Center
Sat 11:23:08 AM 47.2764 -122.9158 245° Southwest 144 166 4,100  Climbing Seattle Center
Sat 11:24:09 AM 47.2619 -122.9708 249° West 145 167 4,000 -49 Descending Seattle Center
Sat 11:25:10 AM 47.2464 -123.0311 249° West 146 168 4,000 49 Level Seattle Center
Sat 11:26:11 AM 47.2322 -123.0850 249° West 142 163 4,100 49 Climbing Seattle Center
Sat 11:27:12 AM 47.2181 -123.1394 249° West 142 163 4,100  Level Seattle Center
Sat 11:28:13 AM 47.2042 -123.1942 250° West 142 163 4,100  Level Seattle Center
Sat 11:29:14 AM 47.1894 -123.2497 249° West 145 167 4,100  Level Seattle Center
Sat 11:30:15 AM 47.1742 -123.3097 249° West 146 168 4,100  Level Seattle Center
Sat 11:31:16 AM 47.1592 -123.3650 248° West 146 168 4,100  Level Seattle Center
Sat 11:32:17 AM 47.1436 -123.4206 248° West 148 170 4,100  Level Seattle Center
Sat 11:33:18 AM 47.1294 -123.4756 249° West 145 167 4,100 -198 Level Seattle Center
Sat 11:34:18 AM 47.0975 -123.5175 222° Southwest 152 175 3,700 -545 Descending Seattle Center
Sat 11:35:19 AM 47.0625 -123.5669 224° Southwest 166 191 3,000 -344 Descending Seattle Center
Sat 11:36:20 AM 47.0317 -123.6111 224° Southwest 158 182 3,000  Level Seattle Center
Sat 11:37:21 AM 47.0031 -123.6567 227° Southwest 156 180 3,000  Level Seattle Center

Login

Don't have an account? Register now (free) for customized features, flight alerts, and more!